Time;durP1;ratioP1;P1;durP2;ratioP2;P2;SDS_P1;SDS_P2;PMS_P1;PMS_P2;Temp;Humidity;BMP_temperature;BMP_pressure;BME280_temperature;BME280_humidity;BME280_pressure;Samples;Min_cycle;Max_cycle;Signal;HPM_P1;HPM_P2
2022/09/18 00:01:25;;;;;;;1.08;0.52;;;11.50;99.90;;;;;;6264302;22;20007;-70
2022/09/18 00:03:54;;;;;;;0.45;0.45;;;11.50;99.90;;;;;;6266003;22;20004;-70
2022/09/18 00:06:22;;;;;;;1.25;0.45;;;11.40;99.90;;;;;;6264595;22;20000;-70
2022/09/18 00:08:51;;;;;;;1.15;0.50;;;11.40;99.90;;;;;;6263614;22;20015;-71
2022/09/18 00:11:20;;;;;;;1.70;0.60;;;11.30;99.90;;;;;;6261738;22;20007;-70
2022/09/18 00:13:46;;;;;;;0.40;0.40;;;11.30;99.90;;;;;;6261536;22;20035;-70
2022/09/18 00:16:13;;;;;;;1.95;0.60;;;11.30;99.90;;;;;;6259316;22;20030;-70
2022/09/18 00:18:40;;;;;;;0.57;0.55;;;11.20;99.90;;;;;;6263181;22;20053;-70
2022/09/18 00:21:14;;;;;;;0.82;0.50;;;11.30;99.90;;;;;;6264225;22;20826;-70
2022/09/18 00:23:40;;;;;;;0.28;0.28;;;11.30;99.90;;;;;;6265357;22;20006;-70
2022/09/18 00:26:08;;;;;;;1.50;0.52;;;11.30;99.90;;;;;;6264310;22;20083;-70
2022/09/18 00:28:34;;;;;;;1.17;0.30;;;11.20;99.90;;;;;;6263986;22;20024;-71
2022/09/18 00:31:24;;;;;;;3.67;0.70;;;11.20;99.90;;;;;;6263102;22;20144;-70
2022/09/18 00:33:50;;;;;;;2.85;0.75;;;11.20;99.90;;;;;;6249215;22;20003;-69
2022/09/18 00:36:17;;;;;;;1.08;0.57;;;11.20;99.90;;;;;;6261000;22;20023;-69
2022/09/18 00:38:43;;;;;;;4.22;0.70;;;11.20;99.90;;;;;;6263876;22;20015;-69
2022/09/18 00:41:24;;;;;;;1.40;0.60;;;11.10;99.90;;;;;;6263180;22;20329;-68
2022/09/18 00:43:52;;;;;;;0.55;0.50;;;11.10;99.90;;;;;;6264718;22;20058;-68
2022/09/18 00:46:33;;;;;;;1.38;0.47;;;11.10;99.90;;;;;;6265941;22;20603;-69
2022/09/18 00:49:11;;;;;;;1.30;0.90;;;11.20;99.90;;;;;;6265450;22;20003;-69
2022/09/18 00:51:38;;;;;;;0.82;0.55;;;11.20;99.90;;;;;;6265046;22;20142;-69
2022/09/18 00:54:35;;;;;;;2.00;0.82;;;11.20;99.90;;;;;;6266278;22;20004;-70
2022/09/18 00:57:07;;;;;;;1.33;0.80;;;11.30;99.90;;;;;;6235174;22;20745;-69
2022/09/18 00:59:35;;;;;;;2.63;1.00;;;11.40;99.90;;;;;;6257159;22;20452;-81
2022/09/18 01:02:01;;;;;;;2.42;0.85;;;11.40;99.90;;;;;;6261676;22;20441;-79
2022/09/18 01:04:29;;;;;;;1.70;0.70;;;11.50;99.90;;;;;;6264807;22;20004;-80
2022/09/18 01:07:06;;;;;;;3.58;1.20;;;11.50;99.90;;;;;;6265850;22;20004;-77
2022/09/18 01:09:49;;;;;;;3.58;1.23;;;11.60;99.90;;;;;;6263208;22;20007;-79
2022/09/18 01:12:49;;;;;;;2.72;1.05;;;11.70;99.90;;;;;;6265347;22;20263;-78
2022/09/18 01:15:41;;;;;;;2.10;0.82;;;11.60;99.90;;;;;;6240393;22;20020;-67
2022/09/18 01:18:19;;;;;;;3.45;0.98;;;11.60;99.90;;;;;;6266200;22;20004;-68
2022/09/18 01:21:06;;;;;;;1.27;0.90;;;11.70;99.90;;;;;;6266129;22;20197;-67
2022/09/18 01:24:03;;;;;;;2.20;0.90;;;11.70;99.90;;;;;;6267555;22;20046;-69
2022/09/18 01:27:03;;;;;;;1.45;0.88;;;11.70;99.90;;;;;;6266820;22;20010;-67
2022/09/18 01:30:03;;;;;;;2.58;1.48;;;11.60;99.90;;;;;;6268359;22;20014;-68
2022/09/18 01:32:33;;;;;;;2.53;1.08;;;11.60;99.90;;;;;;6259229;22;20027;-67
2022/09/18 01:35:05;;;;;;;2.60;1.08;;;11.50;99.90;;;;;;6266575;22;20027;-67
2022/09/18 01:38:02;;;;;;;7.25;1.50;;;11.40;99.90;;;;;;6265286;22;20004;-67
2022/09/18 01:40:32;;;;;;;2.50;0.90;;;11.50;99.90;;;;;;6262942;22;20075;-68
2022/09/18 01:43:02;;;;;;;3.30;1.20;;;11.40;99.90;;;;;;6265642;22;20004;-67
2022/09/18 01:45:33;;;;;;;3.75;0.93;;;11.30;99.90;;;;;;6266351;22;19996;-67
2022/09/18 01:48:05;;;;;;;2.05;0.93;;;11.30;99.90;;;;;;6265730;22;20015;-68
2022/09/18 01:50:34;;;;;;;3.83;1.08;;;11.30;99.90;;;;;;6266497;22;20004;-68
2022/09/18 01:53:09;;;;;;;3.10;1.10;;;11.30;99.90;;;;;;6262254;22;20055;-68
2022/09/18 01:55:36;;;;;;;3.17;0.90;;;11.30;99.90;;;;;;6267013;22;20676;-67
2022/09/18 01:58:07;;;;;;;2.25;1.00;;;11.30;99.90;;;;;;6265862;22;20008;-67
2022/09/18 02:00:38;;;;;;;4.35;1.08;;;11.20;99.90;;;;;;6265678;22;20014;-68
2022/09/18 02:03:14;;;;;;;2.03;0.90;;;11.10;99.90;;;;;;6264911;22;20004;-68
2022/09/18 02:05:50;;;;;;;3.05;1.20;;;11.10;99.90;;;;;;6264039;22;20126;-67
2022/09/18 02:08:51;;;;;;;3.03;0.90;;;11.10;99.90;;;;;;6265502;22;20007;-67
2022/09/18 02:11:18;;;;;;;1.40;0.80;;;11.10;99.90;;;;;;6255186;22;20549;-67
2022/09/18 02:13:47;;;;;;;3.80;1.23;;;11.00;99.90;;;;;;6238338;22;20004;-77
2022/09/18 02:16:41;;;;;;;2.53;1.27;;;11.00;99.90;;;;;;6237874;22;20027;-77
2022/09/18 02:19:30;;;;;;;3.97;1.10;;;10.90;99.90;;;;;;6233291;22;20103;-76
2022/09/18 02:21:58;;;;;;;3.03;1.10;;;10.80;99.90;;;;;;6264151;22;20043;-78
2022/09/18 02:24:28;;;;;;;1.70;0.82;;;10.70;99.90;;;;;;6263547;22;20333;-76
2022/09/18 02:26:55;;;;;;;1.80;0.85;;;10.70;99.90;;;;;;6262859;22;20003;-77
2022/09/18 02:29:23;;;;;;;2.45;0.90;;;10.60;99.90;;;;;;6263480;22;20085;-74
2022/09/18 02:31:49;;;;;;;2.53;1.25;;;10.60;99.90;;;;;;6265312;22;20000;-75
2022/09/18 02:34:16;;;;;;;3.45;0.93;;;10.70;99.90;;;;;;6262885;22;20498;-67
2022/09/18 02:37:00;;;;;;;2.33;0.88;;;10.60;99.90;;;;;;6262480;22;20000;-67
2022/09/18 02:39:45;;;;;;;1.40;0.70;;;10.60;99.90;;;;;;6264651;22;20097;-68
2022/09/18 02:42:34;;;;;;;2.63;1.25;;;10.60;99.90;;;;;;6265725;22;20003;-67
2022/09/18 02:45:18;;;;;;;2.65;1.02;;;10.60;99.90;;;;;;6266970;22;20365;-66
2022/09/18 02:48:09;;;;;;;1.20;0.75;;;10.60;99.90;;;;;;6264986;22;20129;-68
2022/09/18 02:50:53;;;;;;;2.55;1.08;;;10.70;99.90;;;;;;6266134;22;20425;-67
2022/09/18 02:53:39;;;;;;;3.17;1.00;;;10.60;99.90;;;;;;6264379;22;20471;-68
2022/09/18 02:56:20;;;;;;;2.40;1.00;;;10.50;99.90;;;;;;6266958;22;20019;-67
2022/09/18 02:58:56;;;;;;;1.90;0.63;;;10.40;99.90;;;;;;6265349;22;20023;-68
2022/09/18 03:01:25;;;;;;;2.22;1.00;;;10.30;99.90;;;;;;6266572;22;20312;-68
2022/09/18 03:03:51;;;;;;;1.48;1.02;;;10.30;99.90;;;;;;6265206;22;20007;-67
2022/09/18 03:06:17;;;;;;;3.42;1.00;;;10.30;99.90;;;;;;6263695;22;20341;-68
2022/09/18 03:08:43;;;;;;;1.33;0.80;;;10.30;99.90;;;;;;6265411;22;20010;-67
2022/09/18 03:11:08;;;;;;;2.65;0.82;;;10.20;99.90;;;;;;6263508;22;19996;-67
2022/09/18 03:13:34;;;;;;;1.80;0.95;;;10.20;99.90;;;;;;6265270;22;20105;-66
2022/09/18 03:15:59;;;;;;;7.00;2.78;;;10.10;99.90;;;;;;6267227;22;20018;-67
2022/09/18 03:18:26;;;;;;;2.80;1.05;;;10.20;99.90;;;;;;6265803;22;20000;-68
2022/09/18 03:20:51;;;;;;;2.60;0.80;;;10.30;99.90;;;;;;6265245;22;20033;-67
2022/09/18 03:23:17;;;;;;;2.40;0.88;;;10.30;99.90;;;;;;6267072;22;20006;-67
2022/09/18 03:25:42;;;;;;;1.80;1.23;;;10.20;99.90;;;;;;6266809;22;20038;-68
2022/09/18 03:28:08;;;;;;;1.60;1.00;;;10.20;99.90;;;;;;6263644;22;20015;-68
2022/09/18 03:30:34;;;;;;;2.28;0.90;;;10.20;99.90;;;;;;6264938;22;20238;-68
2022/09/18 03:32:59;;;;;;;3.40;1.05;;;10.10;99.90;;;;;;6264872;22;20010;-69
2022/09/18 03:35:25;;;;;;;2.30;1.00;;;10.10;99.90;;;;;;6266369;22;20025;-68
2022/09/18 03:37:51;;;;;;;0.70;0.70;;;10.10;99.90;;;;;;6265221;22;20394;-67
2022/09/18 03:40:17;;;;;;;1.80;0.70;;;10.10;99.90;;;;;;6267062;22;20092;-67
2022/09/18 03:42:43;;;;;;;2.25;0.60;;;10.10;99.90;;;;;;6262349;22;20008;-67
2022/09/18 03:45:10;;;;;;;3.10;0.80;;;10.10;99.90;;;;;;6264649;22;20007;-66
2022/09/18 03:47:36;;;;;;;2.58;0.77;;;10.10;99.90;;;;;;6264982;22;19999;-67
2022/09/18 03:50:02;;;;;;;1.90;0.90;;;10.10;99.90;;;;;;6264477;22;20075;-68
2022/09/18 03:52:29;;;;;;;1.35;0.90;;;10.10;99.90;;;;;;6265150;22;20008;-67
2022/09/18 03:54:54;;;;;;;1.38;0.73;;;10.10;99.90;;;;;;6239186;22;20020;-67
2022/09/18 03:57:20;;;;;;;1.02;0.70;;;10.20;99.90;;;;;;6263546;22;20061;-67
2022/09/18 03:59:45;;;;;;;1.88;0.90;;;10.20;99.90;;;;;;6263960;22;20082;-67
2022/09/18 04:02:11;;;;;;;0.93;0.73;;;10.20;99.90;;;;;;6265473;22;20003;-66
2022/09/18 04:04:37;;;;;;;2.10;0.75;;;10.20;99.90;;;;;;6265307;22;20874;-66
2022/09/18 04:07:03;;;;;;;1.90;0.82;;;10.30;99.90;;;;;;6265442;22;20004;-76
2022/09/18 04:09:28;;;;;;;1.92;0.70;;;10.40;99.90;;;;;;6266150;22;20003;-77
2022/09/18 04:11:54;;;;;;;1.55;0.80;;;10.50;99.90;;;;;;6234255;22;20019;-77
2022/09/18 04:14:21;;;;;;;2.60;0.82;;;10.50;99.90;;;;;;6264827;22;20000;-77
2022/09/18 04:16:47;;;;;;;1.83;0.55;;;10.60;99.90;;;;;;6264145;22;20007;-75
2022/09/18 04:19:13;;;;;;;1.10;0.75;;;10.60;99.90;;;;;;6266106;22;20026;-75
2022/09/18 04:21:38;;;;;;;1.92;0.45;;;10.60;99.90;;;;;;6266584;22;20100;-76
2022/09/18 04:24:05;;;;;;;1.52;0.60;;;10.60;99.90;;;;;;6266084;22;20012;-76
2022/09/18 04:26:32;;;;;;;2.13;0.63;;;10.60;99.90;;;;;;6236033;22;20007;-78
2022/09/18 04:28:58;;;;;;;0.57;0.50;;;10.70;99.90;;;;;;6237966;22;20629;-77
2022/09/18 04:31:23;;;;;;;1.85;0.88;;;10.70;99.90;;;;;;6265797;22;20004;-76
2022/09/18 04:33:49;;;;;;;1.13;0.47;;;10.80;99.90;;;;;;6264228;22;20092;-73
2022/09/18 04:36:15;;;;;;;0.60;0.50;;;10.90;99.90;;;;;;6264752;22;20424;-75
2022/09/18 04:38:40;;;;;;;1.00;0.57;;;11.00;99.90;;;;;;6263323;22;20065;-79
2022/09/18 04:41:06;;;;;;;1.52;0.70;;;11.00;99.90;;;;;;6264713;22;20035;-78
2022/09/18 04:43:31;;;;;;;0.77;0.70;;;10.90;99.90;;;;;;6234174;22;20181;-75
2022/09/18 04:45:57;;;;;;;0.90;0.70;;;10.70;99.90;;;;;;6264167;22;20004;-66
2022/09/18 04:48:23;;;;;;;0.90;0.40;;;10.70;99.90;;;;;;6262848;22;20010;-66
2022/09/18 04:50:49;;;;;;;1.10;0.50;;;10.80;99.90;;;;;;6264624;22;20666;-67
2022/09/18 04:53:14;;;;;;;2.35;0.40;;;10.80;99.90;;;;;;6265891;22;20333;-68
2022/09/18 04:55:43;;;;;;;2.22;0.40;;;10.80;99.90;;;;;;6264770;22;20019;-67
2022/09/18 04:58:09;;;;;;;2.55;0.52;;;10.80;99.90;;;;;;6264639;22;20010;-68
2022/09/18 05:00:37;;;;;;;2.95;0.60;;;10.70;99.90;;;;;;6265270;22;20003;-67
2022/09/18 05:03:05;;;;;;;2.03;0.45;;;10.70;99.90;;;;;;6265265;22;20106;-69
2022/09/18 05:05:31;;;;;;;2.53;0.50;;;10.70;99.90;;;;;;6265255;22;20003;-78
2022/09/18 05:08:01;;;;;;;2.10;0.40;;;10.70;99.90;;;;;;6264216;22;20006;-78
2022/09/18 05:10:27;;;;;;;2.63;0.70;;;10.70;99.90;;;;;;6266768;22;20337;-78
2022/09/18 05:12:53;;;;;;;0.85;0.50;;;10.80;99.90;;;;;;6236346;22;20003;-76
2022/09/18 05:15:20;;;;;;;3.00;0.60;;;10.80;99.90;;;;;;6265816;22;20093;-80
2022/09/18 05:17:46;;;;;;;2.60;0.52;;;11.00;99.90;;;;;;6236767;22;20000;-78
2022/09/18 05:20:13;;;;;;;1.35;0.60;;;11.10;99.90;;;;;;6266139;22;20023;-78
2022/09/18 05:22:42;;;;;;;3.55;0.82;;;11.20;99.90;;;;;;6265204;22;20004;-79
2022/09/18 05:25:08;;;;;;;1.33;0.40;;;11.20;99.90;;;;;;6266881;22;20000;-79
2022/09/18 05:27:34;;;;;;;1.20;0.40;;;11.40;99.90;;;;;;6263934;22;20035;-78
2022/09/18 05:29:59;;;;;;;1.38;0.30;;;11.50;99.90;;;;;;6266312;22;20473;-79
2022/09/18 05:32:25;;;;;;;5.35;0.40;;;11.50;99.90;;;;;;6265975;22;20345;-77
2022/09/18 05:34:50;;;;;;;3.17;0.80;;;11.50;99.90;;;;;;6239845;22;20027;-78
2022/09/18 05:37:17;;;;;;;2.30;0.45;;;11.50;99.90;;;;;;6265772;22;20007;-77
2022/09/18 05:39:42;;;;;;;1.20;0.50;;;11.50;99.90;;;;;;6265705;22;20083;-76
2022/09/18 05:42:08;;;;;;;3.35;0.60;;;11.50;99.90;;;;;;6265822;22;20034;-76
2022/09/18 05:44:34;;;;;;;1.40;0.40;;;11.60;99.90;;;;;;6262180;22;20344;-79
2022/09/18 05:47:00;;;;;;;0.65;0.35;;;11.70;99.90;;;;;;6263046;22;20030;-75
2022/09/18 05:49:26;;;;;;;2.45;0.52;;;11.80;99.90;;;;;;6263512;22;20093;-79
2022/09/18 05:51:53;;;;;;;1.40;0.40;;;11.90;99.90;;;;;;6264164;22;20087;-78
2022/09/18 05:54:19;;;;;;;0.63;0.35;;;12.00;99.90;;;;;;6264808;22;20004;-78
2022/09/18 05:56:45;;;;;;;2.08;0.60;;;11.90;99.90;;;;;;6263392;22;20012;-79
2022/09/18 05:59:11;;;;;;;0.85;0.30;;;11.90;99.90;;;;;;6265827;22;20063;-79
2022/09/18 06:01:37;;;;;;;0.55;0.20;;;12.00;99.90;;;;;;6266209;22;20011;-76
2022/09/18 06:04:03;;;;;;;0.75;0.20;;;12.00;99.90;;;;;;6266659;22;20007;-78
2022/09/18 06:06:28;;;;;;;1.95;0.40;;;12.00;99.90;;;;;;6265636;22;19999;-77
2022/09/18 06:08:54;;;;;;;1.85;0.30;;;12.00;99.90;;;;;;6266084;22;20000;-78
2022/09/18 06:11:20;;;;;;;2.20;0.40;;;11.90;99.90;;;;;;6266686;22;20100;-80
2022/09/18 06:13:47;;;;;;;7.18;0.47;;;11.80;99.90;;;;;;6266759;22;20014;-79
2022/09/18 06:16:14;;;;;;;2.95;0.45;;;11.90;99.90;;;;;;6266076;22;20341;-78
2022/09/18 06:18:40;;;;;;;3.17;0.57;;;12.00;99.90;;;;;;6265330;22;20601;-79
2022/09/18 06:21:06;;;;;;;2.05;0.50;;;12.10;99.90;;;;;;6267210;22;20030;-79
2022/09/18 06:23:31;;;;;;;5.75;1.08;;;12.20;99.90;;;;;;6267965;22;20010;-77
2022/09/18 06:26:06;;;;;;;1.40;0.40;;;12.20;99.90;;;;;;6239855;22;20057;-77
2022/09/18 06:28:33;;;;;;;3.58;0.47;;;12.20;99.90;;;;;;6269077;22;20031;-77
2022/09/18 06:31:00;;;;;;;3.22;0.45;;;12.10;99.90;;;;;;6267020;22;20685;-80
2022/09/18 06:33:28;;;;;;;3.90;0.40;;;12.20;99.90;;;;;;6266700;22;20110;-79
2022/09/18 06:35:54;;;;;;;1.40;0.60;;;12.40;99.90;;;;;;6266828;22;20360;-78
2022/09/18 06:38:19;;;;;;;4.20;0.90;;;12.50;99.90;;;;;;6267041;22;19992;-79
2022/09/18 06:40:53;;;;;;;1.42;0.38;;;12.50;99.90;;;;;;6266887;22;20397;-79
2022/09/18 06:43:19;;;;;;;2.03;0.30;;;12.60;99.90;;;;;;6266960;22;20481;-78
2022/09/18 06:45:52;;;;;;;1.40;0.40;;;12.60;99.90;;;;;;6264855;22;20035;-79
2022/09/18 06:48:18;;;;;;;2.30;0.40;;;12.40;99.90;;;;;;6239929;22;20004;-79
2022/09/18 06:50:49;;;;;;;0.35;0.30;;;12.20;99.90;;;;;;6266422;22;20074;-79
2022/09/18 06:53:14;;;;;;;3.45;1.25;;;12.10;99.90;;;;;;6268004;22;20437;-79
2022/09/18 06:55:40;;;;;;;2.00;0.40;;;12.10;99.90;;;;;;6266822;22;20087;-78
2022/09/18 06:58:06;;;;;;;1.65;0.30;;;12.20;99.90;;;;;;6266671;22;20004;-78
2022/09/18 07:00:31;;;;;;;1.42;0.60;;;12.20;99.90;;;;;;6265912;22;20004;-78
2022/09/18 07:02:59;;;;;;;1.27;0.40;;;12.10;99.90;;;;;;6266761;22;20003;-79
2022/09/18 07:05:28;;;;;;;1.40;0.40;;;12.10;99.90;;;;;;6266286;22;20337;-79
2022/09/18 07:07:54;;;;;;;3.13;0.30;;;12.20;99.90;;;;;;6266263;22;20436;-80
2022/09/18 07:10:20;;;;;;;3.80;0.20;;;12.30;99.90;;;;;;6262161;22;19996;-80
2022/09/18 07:12:47;;;;;;;5.82;0.30;;;12.40;99.90;;;;;;6264840;22;20003;-79
2022/09/18 07:15:18;;;;;;;5.65;0.52;;;12.50;99.90;;;;;;6265954;22;20391;-79
2022/09/18 07:17:44;;;;;;;1.90;0.40;;;12.50;99.90;;;;;;6266988;22;20008;-79
2022/09/18 07:20:11;;;;;;;0.90;0.50;;;12.40;99.90;;;;;;6267322;22;20376;-79
2022/09/18 07:22:37;;;;;;;1.58;0.20;;;12.40;99.90;;;;;;6266309;22;20003;-79
2022/09/18 07:25:04;;;;;;;2.10;0.30;;;12.30;99.90;;;;;;6265669;22;20003;-77
2022/09/18 07:27:29;;;;;;;3.17;0.60;;;12.20;99.90;;;;;;6259619;22;20103;-78
2022/09/18 07:29:55;;;;;;;0.88;0.40;;;12.10;99.90;;;;;;6260703;22;20098;-80
2022/09/18 07:32:22;;;;;;;1.38;0.20;;;12.10;99.90;;;;;;6259762;22;20396;-78
2022/09/18 07:34:47;;;;;;;4.07;0.55;;;12.00;99.90;;;;;;6265454;22;20023;-79
2022/09/18 07:37:13;;;;;;;0.52;0.30;;;12.00;99.90;;;;;;6262634;22;20110;-78
2022/09/18 07:39:39;;;;;;;4.47;0.77;;;12.10;99.90;;;;;;6264735;22;20441;-77
2022/09/18 07:42:05;;;;;;;0.88;0.25;;;12.10;99.90;;;;;;6264751;22;20481;-78
2022/09/18 07:44:33;;;;;;;0.85;0.22;;;12.20;99.90;;;;;;6262425;22;20122;-78
2022/09/18 07:46:58;;;;;;;3.90;0.50;;;12.10;99.90;;;;;;6261839;22;20007;-77
2022/09/18 07:49:24;;;;;;;1.23;0.40;;;12.10;99.90;;;;;;6265580;22;20348;-79
2022/09/18 07:51:50;;;;;;;0.77;0.30;;;12.20;99.90;;;;;;6265259;22;20078;-78
2022/09/18 07:54:16;;;;;;;1.38;0.40;;;12.20;99.90;;;;;;6264643;22;20004;-77
2022/09/18 07:56:42;;;;;;;1.08;0.50;;;12.10;99.90;;;;;;6263280;22;20019;-76
2022/09/18 07:59:08;;;;;;;0.75;0.28;;;12.10;99.90;;;;;;6266567;22;20075;-77
2022/09/18 08:01:34;;;;;;;2.47;0.40;;;12.10;99.90;;;;;;6265964;22;20407;-77
2022/09/18 08:04:01;;;;;;;2.78;0.60;;;12.20;99.90;;;;;;6262349;22;20031;-75
2022/09/18 08:06:27;;;;;;;2.58;0.22;;;12.20;99.90;;;;;;6264629;22;20239;-76
2022/09/18 08:08:52;;;;;;;1.20;0.35;;;12.20;99.90;;;;;;6264996;22;20055;-77
2022/09/18 08:11:18;;;;;;;0.85;0.20;;;12.20;99.90;;;;;;6264219;22;20105;-78
2022/09/18 08:13:46;;;;;;;0.40;0.20;;;12.20;99.90;;;;;;6267277;22;20006;-77
2022/09/18 08:16:12;;;;;;;2.55;0.20;;;12.20;99.90;;;;;;6265227;22;20093;-79
2022/09/18 08:18:38;;;;;;;0.82;0.20;;;12.30;99.90;;;;;;6265869;22;20000;-78
2022/09/18 08:21:04;;;;;;;3.22;0.57;;;12.50;99.90;;;;;;6266611;22;20392;-77
2022/09/18 08:23:30;;;;;;;0.88;0.35;;;12.50;99.90;;;;;;6267269;22;20038;-78
2022/09/18 08:25:58;;;;;;;0.90;0.30;;;12.50;99.90;;;;;;6266580;22;19999;-78
2022/09/18 08:28:24;;;;;;;2.00;0.60;;;12.30;99.90;;;;;;6272767;22;20162;-78
2022/09/18 08:30:49;;;;;;;0.93;0.20;;;12.20;99.90;;;;;;6279431;22;20000;-78
2022/09/18 08:33:15;;;;;;;2.10;0.50;;;12.20;99.90;;;;;;6279257;22;20004;-79
2022/09/18 08:35:41;;;;;;;0.80;0.38;;;12.10;99.90;;;;;;6277292;22;20012;-68
2022/09/18 08:38:09;;;;;;;1.63;0.20;;;12.10;99.90;;;;;;6278484;22;19996;-68
2022/09/18 08:40:41;;;;;;;0.20;0.20;;;12.30;99.90;;;;;;6279148;22;20063;-70
2022/09/18 08:43:06;;;;;;;0.25;0.15;;;12.30;99.90;;;;;;6276168;22;20007;-69
2022/09/18 08:45:45;;;;;;;1.00;0.20;;;12.40;99.90;;;;;;6277354;22;20012;-71
2022/09/18 08:48:17;;;;;;;0.52;0.20;;;12.40;99.90;;;;;;6276158;22;19996;-71
2022/09/18 08:51:11;;;;;;;3.05;0.43;;;12.40;99.90;;;;;;6275391;22;20018;-70
2022/09/18 08:53:44;;;;;;;2.22;0.47;;;12.40;99.90;;;;;;6223680;22;20069;-69
2022/09/18 08:56:20;;;;;;;1.35;0.20;;;12.50;99.90;;;;;;6276189;22;20019;-72
2022/09/18 08:59:03;;;;;;;1.02;0.32;;;12.40;99.90;;;;;;6276175;22;20004;-70
2022/09/18 09:01:42;;;;;;;2.15;0.30;;;12.40;99.90;;;;;;6248869;22;20329;-71
2022/09/18 09:04:17;;;;;;;0.70;0.30;;;12.30;99.90;;;;;;6275578;22;20004;-71
2022/09/18 09:06:48;;;;;;;0.90;0.30;;;12.20;99.90;;;;;;6277069;22;20008;-70
2022/09/18 09:09:30;;;;;;;1.57;0.33;;;12.20;99.90;;;;;;6268896;22;20011;-71
2022/09/18 09:12:06;;;;;;;1.17;0.30;;;12.10;99.90;;;;;;6266483;22;20252;-72
2022/09/18 09:14:40;;;;;;;0.73;0.22;;;12.10;99.90;;;;;;6262959;22;20389;-70
2022/09/18 09:17:19;;;;;;;0.55;0.10;;;12.20;99.90;;;;;;6263069;22;20043;-73
2022/09/18 09:20:02;;;;;;;1.58;0.30;;;12.20;99.90;;;;;;6235850;22;20004;-70
2022/09/18 09:22:51;;;;;;;1.15;0.35;;;12.20;99.90;;;;;;6238663;22;20031;-70
2022/09/18 09:25:28;;;;;;;0.63;0.30;;;12.30;99.90;;;;;;6263497;22;20011;-70
2022/09/18 09:28:25;;;;;;;4.38;0.40;;;12.30;99.90;;;;;;6265585;22;20016;-70
2022/09/18 09:30:57;;;;;;;6.38;0.45;;;12.30;99.90;;;;;;6262492;22;20008;-70
2022/09/18 09:33:26;;;;;;;;;;;12.50;99.90;;;;;;6264669;22;20019;-69
2022/09/18 09:35:57;;;;;;;2.35;0.30;;;12.50;99.90;;;;;;6262828;22;20396;-71
2022/09/18 09:39:01;;;;;;;1.83;0.32;;;12.60;99.90;;;;;;6261822;22;20050;-70
2022/09/18 09:41:37;;;;;;;1.98;0.43;;;12.60;99.90;;;;;;6261547;22;20003;-70
2022/09/18 09:44:14;;;;;;;1.00;0.15;;;12.60;99.90;;;;;;6261498;22;20503;-71
2022/09/18 09:46:59;;;;;;;4.00;0.20;;;12.60;99.90;;;;;;6261035;22;20004;-72
2022/09/18 09:49:33;;;;;;;1.13;0.15;;;12.60;99.90;;;;;;6261803;22;20008;-71
2022/09/18 09:52:26;;;;;;;1.73;0.38;;;12.50;99.90;;;;;;6259629;22;20004;-71
2022/09/18 09:55:18;;;;;;;0.43;0.30;;;12.50;99.90;;;;;;6258603;22;20000;-70
2022/09/18 09:58:02;;;;;;;1.90;0.20;;;12.50;99.90;;;;;;6257926;22;20019;-71
2022/09/18 10:00:35;;;;;;;0.47;0.20;;;12.40;99.90;;;;;;6259405;22;20425;-73
2022/09/18 10:03:22;;;;;;;3.90;0.38;;;12.30;99.90;;;;;;6261639;22;20057;-70
2022/09/18 10:06:07;;;;;;;3.55;0.32;;;12.30;99.90;;;;;;6261271;22;20705;-70
2022/09/18 10:09:15;;;;;;;0.45;0.10;;;12.40;99.90;;;;;;6260931;22;20058;-71
2022/09/18 10:11:46;;;;;;;0.40;0.20;;;12.50;99.90;;;;;;6200656;22;20400;-70
2022/09/18 10:14:17;;;;;;;0.30;0.10;;;12.50;99.90;;;;;;6259742;22;20026;-72
2022/09/18 10:16:47;;;;;;;2.13;0.30;;;12.50;99.90;;;;;;6262067;22;20027;-70
2022/09/18 10:19:18;;;;;;;1.13;0.25;;;12.50;99.90;;;;;;6261211;22;20004;-70
2022/09/18 10:21:45;;;;;;;0.68;0.20;;;12.60;99.90;;;;;;6260686;22;20007;-70
2022/09/18 10:24:32;;;;;;;0.70;0.17;;;12.60;99.90;;;;;;6258545;22;20508;-70
2022/09/18 10:27:08;;;;;;;2.55;0.20;;;12.60;99.90;;;;;;6262897;22;20022;-72
2022/09/18 10:29:33;;;;;;;0.60;0.10;;;12.60;99.90;;;;;;6261504;22;20007;-70
2022/09/18 10:32:00;;;;;;;1.80;0.20;;;12.60;99.90;;;;;;6261100;22;20315;-70
2022/09/18 10:34:39;;;;;;;2.67;0.30;;;12.70;99.90;;;;;;6262855;22;20497;-72
2022/09/18 10:37:32;;;;;;;1.35;0.32;;;12.60;99.90;;;;;;6260328;22;20007;-70
2022/09/18 10:40:00;;;;;;;3.00;0.38;;;12.60;99.90;;;;;;6239944;22;20004;-70
2022/09/18 10:42:31;;;;;;;3.10;0.25;;;12.60;99.90;;;;;;6261013;22;20014;-70
2022/09/18 10:45:01;;;;;;;1.83;0.20;;;12.60;99.90;;;;;;6260028;22;20004;-70
2022/09/18 10:47:30;;;;;;;1.65;0.30;;;12.60;99.90;;;;;;6263019;22;20016;-69
2022/09/18 10:49:55;;;;;;;0.70;0.10;;;12.70;99.90;;;;;;6261915;22;20045;-71
2022/09/18 10:52:41;;;;;;;1.63;0.32;;;12.70;99.90;;;;;;6265186;22;20012;-70
2022/09/18 10:55:07;;;;;;;0.93;0.40;;;12.80;99.90;;;;;;6260995;22;20035;-70
2022/09/18 10:57:56;;;;;;;0.50;0.22;;;12.90;99.90;;;;;;6267596;22;20350;-70
2022/09/18 11:00:25;;;;;;;1.48;0.20;;;12.90;99.90;;;;;;6263464;22;20000;-70
2022/09/18 11:07:50;;;;;;;0.77;0.10;;;12.70;99.90;;;;;;6268266;22;20019;-69
2022/09/18 11:10:22;;;;;;;0.75;0.20;;;12.60;99.90;;;;;;6293960;22;20088;-70
2022/09/18 11:12:57;;;;;;;5.07;0.45;;;12.60;99.90;;;;;;6294064;22;20205;-70
2022/09/18 11:15:35;;;;;;;1.55;0.32;;;12.50;99.90;;;;;;6296306;22;20014;-69
2022/09/18 11:18:06;;;;;;;1.55;0.28;;;12.60;99.90;;;;;;6292609;22;20074;-70
2022/09/18 11:20:42;;;;;;;1.70;0.20;;;12.60;99.90;;;;;;6283086;22;19999;-70
2022/09/18 11:23:13;;;;;;;0.30;0.03;;;12.70;99.90;;;;;;6290966;22;20061;-71
2022/09/18 11:25:40;;;;;;;3.85;0.50;;;12.80;99.90;;;;;;6287682;22;20237;-70
2022/09/18 11:28:19;;;;;;;0.60;0.20;;;12.80;99.90;;;;;;6284943;22;20402;-69
2022/09/18 11:31:17;;;;;;;0.38;0.20;;;12.70;99.90;;;;;;6287369;22;20003;-70
2022/09/18 11:33:50;;;;;;;1.60;0.30;;;12.70;99.90;;;;;;6266977;22;20011;-71
2022/09/18 11:36:23;;;;;;;0.68;0.30;;;12.80;99.90;;;;;;6290271;22;20050;-71
2022/09/18 11:38:49;;;;;;;1.40;0.20;;;13.00;99.90;;;;;;6292879;22;20466;-71
2022/09/18 11:41:22;;;;;;;2.67;0.70;;;13.20;99.90;;;;;;6293507;22;19999;-71
2022/09/18 11:44:00;;;;;;;2.47;0.35;;;13.20;99.90;;;;;;6265887;22;20000;-71
2022/09/18 11:46:48;;;;;;;4.55;1.65;;;13.30;99.90;;;;;;6294904;22;20057;-75
2022/09/18 11:49:21;;;;;;;2.00;1.00;;;13.40;99.90;;;;;;6293317;22;20078;-75
2022/09/18 11:51:50;;;;;;;2.45;0.55;;;13.60;99.90;;;;;;6290650;22;20007;-75
2022/09/18 11:54:43;;;;;;;1.13;0.32;;;13.70;99.90;;;;;;6296154;22;20007;-75
2022/09/18 11:57:27;;;;;;;;;;;13.80;99.90;;;;;;6226243;22;20047;-78
2022/09/18 12:00:11;;;;;;;3.05;0.32;;;13.90;99.90;;;;;;6295532;22;19937;-77
2022/09/18 12:02:47;;;;;;;2.25;0.50;;;14.00;99.90;;;;;;6296739;22;20007;-77
2022/09/18 12:05:37;;;;;;;1.25;0.40;;;14.00;99.90;;;;;;6295370;22;20004;-77
2022/09/18 12:08:34;;;;;;;1.88;0.50;;;14.00;99.90;;;;;;6283315;22;20015;-77
2022/09/18 12:11:27;;;;;;;1.65;0.50;;;13.90;99.90;;;;;;6260255;22;20008;-78
2022/09/18 12:14:00;;;;;;;4.63;0.45;;;13.80;99.90;;;;;;6262430;22;20008;-76
2022/09/18 12:16:50;;;;;;;1.08;0.30;;;13.70;99.90;;;;;;6264125;22;20012;-77
2022/09/18 12:19:48;;;;;;;2.20;0.55;;;13.60;99.90;;;;;;6266203;22;20007;-78
2022/09/18 12:22:25;;;;;;;1.80;0.80;;;13.80;99.90;;;;;;6262586;22;20003;-76
2022/09/18 12:24:51;;;;;;;1.67;0.25;;;13.80;99.90;;;;;;6266336;22;20516;-79
2022/09/18 12:27:35;;;;;;;10.55;7.40;;;13.90;99.90;;;;;;6237343;22;20036;-76
2022/09/18 12:30:12;;;;;;;3.25;0.75;;;14.00;99.90;;;;;;6266735;22;19999;-77
2022/09/18 12:33:05;;;;;;;1.02;0.30;;;14.10;99.90;;;;;;6265787;22;20014;-76
2022/09/18 12:35:59;;;;;;;1.83;0.32;;;14.00;99.90;;;;;;6264709;22;20016;-76
2022/09/18 12:38:46;;;;;;;3.38;0.50;;;14.00;99.90;;;;;;6265696;22;20057;-76
2022/09/18 12:41:26;;;;;;;2.40;0.60;;;13.90;99.90;;;;;;6265408;22;20024;-77
2022/09/18 12:44:23;;;;;;;1.27;0.32;;;13.90;99.90;;;;;;6266413;22;20027;-78
2022/09/18 12:47:11;;;;;;;0.93;0.40;;;13.80;99.90;;;;;;6263478;22;20004;-75
2022/09/18 12:49:57;;;;;;;1.08;0.38;;;13.80;99.90;;;;;;6266098;22;20386;-76
2022/09/18 12:52:41;;;;;;;3.60;0.30;;;13.60;99.90;;;;;;6262966;22;20062;-77
2022/09/18 12:55:15;;;;;;;2.35;0.32;;;13.50;99.90;;;;;;6238171;22;20102;-79
2022/09/18 12:57:51;;;;;;;1.77;0.20;;;13.70;99.90;;;;;;6264225;22;20000;-78
2022/09/18 13:00:18;;;;;;;0.90;0.50;;;14.00;99.90;;;;;;6262645;22;20004;-75
2022/09/18 13:02:46;;;;;;;2.13;0.30;;;14.20;99.90;;;;;;6266891;22;19999;-79
2022/09/18 13:05:27;;;;;;;2.88;0.98;;;14.40;99.90;;;;;;6258478;22;20126;-77
2022/09/18 13:08:02;;;;;;;2.33;0.50;;;14.50;99.90;;;;;;6264544;22;20826;-77
2022/09/18 13:10:34;;;;;;;1.75;0.50;;;14.70;99.90;;;;;;6266567;22;20031;-72
2022/09/18 13:13:18;;;;;;;;;;;14.80;99.90;;;;;;6265020;22;19995;-74
2022/09/18 13:16:02;;;;;;;1.27;0.35;;;14.90;99.90;;;;;;6263292;22;19911;-74
2022/09/18 13:18:56;;;;;;;1.00;0.17;;;15.00;99.90;;;;;;6263952;22;20098;-73
2022/09/18 13:21:40;;;;;;;0.80;0.30;;;15.20;99.90;;;;;;6264393;22;20007;-72